Data for 05/17/2015

Time Sea-Level Adjusted Pressure Absolute Pressure Temperature Relative Humidity Dew Point   
(mb) (inHg) (mb) (inHg) (C) (F) (%) (C) (F)
00:05 1016 30 846 24.98 3.7 38.7 92 2.5 36.5
00:10 1016 30 846 24.98 3.7 38.7 92 2.5 36.5
00:15 1016 30 846 24.98 3.7 38.7 92 2.5 36.4
00:20 1017 30.03 846 24.98 3.7 38.6 91 2.4 36.2
00:25 1017 30.03 846 24.98 3.6 38.5 92 2.4 36.3
00:30 1017 30.03 846 24.98 3.5 38.4 92 2.4 36.3
00:35 1017 30.03 846 24.98 3.5 38.3 92 2.3 36.2
00:40 1017 30.03 846 24.98 3.5 38.3 92 2.3 36.1
00:45 1017 30.03 846 24.98 3.5 38.4 92 2.3 36.2
00:50 1017 30.03 846 24.98 3.3 37.9 91 1.9 35.4
00:55 1017 30.03 846 24.98 3.1 37.6 91 1.8 35.3
01:00 1017 30.03 846 24.98 3.2 37.7 92 2 35.5
01:05 1017 30.03 846 24.98 3.2 37.8 92 2 35.6
01:10 1017 30.03 846 24.98 3.2 37.8 91 1.9 35.4
01:15 1017 30.03 846 24.98 3.1 37.6 91 1.9 35.3
01:20 1017 30.03 846 24.98 3.2 37.7 91 1.8 35.3
01:25 1017 30.03 846 24.98 3.2 37.8 91 1.8 35.3
01:30 1017 30.03 846 24.98 3.2 37.7 90 1.7 35
01:35 1017 30.03 846 24.98 3.2 37.8 90 1.8 35.2
01:40 1017 30.03 846 24.98 3.3 37.9 90 1.8 35.3
01:45 1017 30.03 846 24.98 3.4 38.1 90 1.9 35.4
01:50 1017 30.03 846 24.98 3.4 38.2 90 1.9 35.5
01:55 1017 30.03 846 24.98 3.4 38.2 90 1.9 35.5
02:00 1017 30.03 846 24.98 3.4 38.2 90 2 35.6
02:05 1017 30.03 846 24.98 3.5 38.2 90 1.9 35.4
02:10 1017 30.03 846 24.98 3.5 38.2 89 1.8 35.3
02:15 1017 30.03 847 25.01 3.5 38.2 89 1.8 35.2
02:20 1017 30.03 847 25.01 3.5 38.3 89 1.9 35.4
02:25 1017 30.03 847 25.01 3.4 38.2 89 1.8 35.3
02:30 1018 30.06 847 25.01 3.5 38.2 90 1.9 35.4
02:35 1018 30.06 847 25.01 3.5 38.3 89 1.9 35.3
02:40 1018 30.06 847 25.01 3.5 38.3 89 1.9 35.3
02:45 1018 30.06 847 25.01 3.5 38.4 89 1.9 35.5
02:50 1018 30.06 847 25.01 3.5 38.4 90 2 35.7
02:55 1018 30.06 847 25.01 3.6 38.4 90 2 35.7
03:00 1018 30.06 847 25.01 3.5 38.3 89 1.9 35.3
03:05 1018 30.06 847 25.01 3.5 38.3 89 1.8 35.3
03:10 1018 30.06 847 25.01 3.5 38.4 90 2 35.7
03:15 1018 30.06 847 25.01 3.6 38.4 90 2.1 35.7
03:20 1018 30.06 847 25.01 3.5 38.3 90 2.1 35.7
03:25 1018 30.06 847 25.01 3.5 38.4 90 2 35.7
03:30 1018 30.06 847 25.01 3.5 38.3 90 2.1 35.8
03:35 1018 30.06 847 25.01 3.5 38.2 90 2 35.6
03:40 1018 30.06 847 25.01 3.3 37.9 91 2 35.5
03:45 1018 30.06 848 25.04 3.2 37.8 91 2 35.5
03:50 1018 30.06 848 25.04 3.3 37.9 91 2 35.6
03:55 1018 30.06 848 25.04 3.3 37.9 91 2 35.6
04:00 1019 30.09 848 25.04 3.3 37.9 91 2 35.6
04:05 1019 30.09 848 25.04 3.3 38 91 2 35.7
04:10 1019 30.09 848 25.04 3.3 38 91 2 35.6
04:15 1019 30.09 848 25.04 3.3 38 91 2.1 35.8
04:20 1019 30.09 848 25.04 3.4 38.1 91 2.1 35.7
04:25 1019 30.09 848 25.04 3.4 38.1 91 2 35.6
04:30 1019 30.09 848 25.04 3.4 38.1 90 1.9 35.5
04:35 1019 30.09 848 25.04 3.4 38 90 1.9 35.4
04:40 1019 30.09 848 25.04 3.4 38.1 90 1.9 35.5
04:45 1019 30.09 848 25.04 3.4 38.1 90 1.9 35.3
04:50 1019 30.09 848 25.04 3.4 38.1 90 1.9 35.4
04:55 1019 30.09 848 25.04 3.4 38 90 1.9 35.4
05:00 1019 30.09 849 25.07 3.4 38.1 90 1.9 35.5
05:05 1019 30.09 849 25.07 3.4 38.1 90 1.9 35.4
05:10 1019 30.09 849 25.07 3.4 38.1 90 2 35.5
05:15 1020 30.12 849 25.07 3.4 38 90 1.9 35.5
05:20 1020 30.12 849 25.07 3.4 38 91 2 35.6
05:25 1020 30.12 849 25.07 3.3 38 91 1.9 35.5
05:30 1020 30.12 849 25.07 3.3 38 91 2 35.6
05:35 1020 30.12 849 25.07 3.4 38.1 91 2 35.6
05:40 1020 30.12 849 25.07 3.4 38.1 91 2.1 35.7
05:45 1020 30.12 849 25.07 3.4 38.1 91 2.1 35.8
05:50 1020 30.12 849 25.07 3.4 38.2 91 2.2 35.9
05:55 1020 30.12 849 25.07 3.5 38.3 91 2.2 36
06:00 1020 30.12 849 25.07 3.5 38.3 91 2.2 36
06:05 1020 30.12 849 25.07 3.5 38.3 91 2.1 35.8
06:10 1020 30.12 849 25.07 3.5 38.4 91 2.2 36
06:15 1020 30.12 849 25.07 3.6 38.5 90 2.2 35.9
06:20 1020 30.12 849 25.07 3.5 38.4 90 2.1 35.7
06:25 1020 30.12 849 25.07 3.5 38.4 90 2.1 35.7
06:30 1020 30.12 850 25.1 3.6 38.5 90 2.2 35.9
06:35 1020 30.12 850 25.1 3.6 38.5 89 2 35.7
06:40 1020 30.12 850 25.1 3.6 38.5 89 2 35.5
06:45 1020 30.12 850 25.1 3.7 38.6 89 2 35.6
06:50 1020 30.12 850 25.1 3.7 38.7 88 1.9 35.5
06:55 1021 30.15 850 25.1 3.8 38.8 87 1.9 35.4
07:00 1021 30.15 850 25.1 3.8 38.8 89 2.1 35.8
07:05 1021 30.15 850 25.1 3.9 39.1 87 1.9 35.5
07:10 1021 30.15 850 25.1 3.9 39 85 1.6 34.9
07:15 1021 30.15 850 25.1 3.8 38.9 87 1.9 35.4
07:20 1021 30.15 850 25.1 4 39.2 86 1.9 35.3
07:25 1021 30.15 850 25.1 3.9 39 87 1.9 35.4
07:30 1021 30.15 850 25.1 3.7 38.7 88 1.9 35.4
07:35 1021 30.15 850 25.1 3.8 38.8 86 1.6 34.9
07:40 1021 30.15 850 25.1 3.7 38.6 87 1.7 35.1
07:45 1021 30.15 850 25.1 3.7 38.7 87 1.8 35.3
07:50 1021 30.15 850 25.1 3.8 38.8 87 1.9 35.4
07:55 1021 30.15 850 25.1 3.9 39 88 2 35.6
08:00 1021 30.15 850 25.1 4 39.1 88 2.2 35.9
08:05 1021 30.15 850 25.1 4.1 39.3 89 2.4 36.3
08:10 1021 30.15 850 25.1 4.2 39.5 89 2.5 36.4
08:15 1021 30.15 850 25.1 4.2 39.6 88 2.4 36.4
08:20 1021 30.15 850 25.1 4.3 39.7 88 2.4 36.3
08:25 1021 30.15 851 25.13 4.3 39.7 87 2.4 36.3
08:30 1021 30.15 851 25.13 4.3 39.8 88 2.4 36.4
08:35 1021 30.15 851 25.13 4.4 39.9 87 2.4 36.3
08:40 1022 30.18 851 25.13 4.4 40 87 2.4 36.4
08:45 1022 30.18 851 25.13 4.4 40 87 2.5 36.5
08:50 1022 30.18 851 25.13 4.5 40.2 88 2.7 36.9
08:55 1022 30.18 851 25.13 4.6 40.3 86 2.4 36.3
09:00 1022 30.18 851 25.13 4.7 40.4 84 2.3 36.1
09:05 1022 30.18 851 25.13 4.7 40.5 83 2.1 35.9
09:10 1022 30.18 851 25.13 4.8 40.7 83 2.2 35.9
09:15 1022 30.18 851 25.13 4.9 40.7 84 2.3 36.2
09:20 1022 30.18 851 25.13 5 41 82 2.2 36
09:25 1022 30.18 851 25.13 4.9 40.9 82 2.2 35.9
09:30 1022 30.18 851 25.13 5 40.9 81 2 35.7
09:35 1022 30.18 851 25.13 5 40.9 81 1.9 35.5
09:40 1022 30.18 851 25.13 5.1 41.2 80 1.9 35.5
09:45 1022 30.18 851 25.13 4.9 40.9 83 2.3 36.2
09:50 1022 30.18 851 25.13 5.2 41.3 82 2.3 36.2
09:55 1022 30.18 851 25.13 5.3 41.6 82 2.5 36.4
10:00 1022 30.18 851 25.13 5.4 41.6 82 2.5 36.4
10:05 1022 30.18 851 25.13 5.4 41.7 81 2.4 36.3
10:10 1022 30.18 851 25.13 5.4 41.8 81 2.4 36.3
10:15 1022 30.18 851 25.13 5.5 41.9 82 2.7 36.8
10:20 1022 30.18 851 25.13 5.6 42.2 80 2.5 36.6
10:25 1022 30.18 851 25.13 5.6 42 83 2.8 37.1
10:30 1022 30.18 851 25.13 5.6 42 82 2.7 36.9
10:35 1022 30.18 851 25.13 5.7 42.2 82 2.9 37.2
10:40 1022 30.18 851 25.13 5.7 42.2 79 2.4 36.4
10:45 1022 30.18 851 25.13 5.7 42.2 82 2.8 37
10:50 1022 30.18 851 25.13 5.9 42.6 80 2.6 36.8
10:55 1022 30.18 851 25.13 5.9 42.6 78 2.3 36.1
11:00 1022 30.18 851 25.13 5.8 42.4 79 2.5 36.4
11:05 1022 30.18 852 25.16 5.9 42.7 80 2.7 36.9
11:10 1022 30.18 852 25.16 5.9 42.7 80 2.8 37
11:15 1022 30.18 852 25.16 6 42.8 81 3 37.3
11:20 1022 30.18 852 25.16 6.1 43 80 2.9 37.3
11:25 1022 30.18 852 25.16 6 42.9 82 3.3 37.9
11:30 1022 30.18 852 25.16 6 42.8 84 3.4 38.2
11:35 1023 30.21 852 25.16 5.9 42.7 83 3.2 37.7
11:40 1023 30.21 852 25.16 5.8 42.4 85 3.4 38.2
11:45 1023 30.21 852 25.16 5.7 42.2 84 3.1 37.6
11:50 1023 30.21 852 25.16 5.3 41.5 81 2.3 36.2
11:55 1023 30.21 852 25.16 5.2 41.4 81 2.3 36.2
12:00 1023 30.21 852 25.16 5.4 41.8 82 2.6 36.7
12:05 1023 30.21 852 25.16 5.6 42 78 2.1 35.7
12:10 1023 30.21 852 25.16 5.5 41.8 78 1.9 35.4
12:15 1023 30.21 852 25.16 5.6 42.1 81 2.7 36.8
12:20 1023 30.21 852 25.16 5.5 42 80 2.4 36.3
12:25 1023 30.21 852 25.16 5.3 41.5 80 2.1 35.8
12:30 1023 30.21 852 25.16 5 41 82 2.2 35.9
12:35 1023 30.21 852 25.16 5 41 83 2.3 36.1
12:40 1023 30.21 852 25.16 5 40.9 82 2.2 36
12:45 1023 30.21 852 25.16 4.9 40.8 85 2.6 36.7
12:50 1023 30.21 852 25.16 5 41 85 2.7 36.9
12:55 1023 30.21 852 25.16 5 41 86 2.8 37
13:00 1023 30.21 852 25.16 5.1 41.2 85 2.8 37.1
13:05 1023 30.21 852 25.16 5.4 41.8 83 2.8 37
13:10 1023 30.21 852 25.16 5.4 41.8 84 3 37.3
13:15 1023 30.21 852 25.16 5.6 42.1 84 3 37.4
13:20 1023 30.21 852 25.16 5.9 42.6 80 2.8 37
13:25 1023 30.21 852 25.16 6.2 43.1 79 2.8 37
13:30 1023 30.21 852 25.16 6.2 43.1 79 2.8 37
13:35 1023 30.21 852 25.16 6.1 43 80 2.9 37.3
13:40 1023 30.21 852 25.16 6.6 43.8 77 2.9 37.2
13:45 1023 30.21 852 25.16 6.9 44.4 75 2.7 36.9
13:50 1023 30.21 852 25.16 7 44.6 75 2.8 37.1
13:55 1023 30.21 852 25.16 7 44.5 73 2.5 36.5
14:00 1023 30.21 852 25.16 6.9 44.4 75 2.8 37.1
14:05 1023 30.21 852 25.16 7.3 45.1 74 2.9 37.3
14:10 1023 30.21 852 25.16 7.5 45.5 72 2.8 37
14:15 1023 30.21 853 25.19 7.3 45.2 73 2.8 37
14:20 1023 30.21 853 25.19 7.3 45.1 72 2.6 36.7
14:25 1023 30.21 853 25.19 7.3 45.2 73 2.8 37
14:30 1023 30.21 853 25.19 7.4 45.2 71 2.6 36.6
14:35 1023 30.21 853 25.19 7.4 45.4 73 3 37.4
14:40 1023 30.21 853 25.19 7.2 44.9 73 2.7 36.8
14:45 1023 30.21 853 25.19 6.9 44.4 75 2.8 37
14:50 1023 30.21 853 25.19 6.6 44 78 3.1 37.5
14:55 1023 30.21 853 25.19 5.8 42.5 80 2.6 36.7
15:00 1024 30.24 853 25.19 6 42.7 79 2.5 36.6
15:05 1024 30.24 853 25.19 5.7 42.3 80 2.6 36.7
15:10 1024 30.24 853 25.19 5.7 42.2 81 2.7 36.9
15:15 1024 30.24 853 25.19 5.7 42.2 81 2.6 36.8
15:20 1024 30.24 853 25.19 5.8 42.5 81 2.8 37
15:25 1024 30.24 853 25.19 5.8 42.5 82 2.9 37.2
15:30 1024 30.24 853 25.19 5.8 42.5 80 2.7 36.9
15:35 1024 30.24 853 25.19 5.9 42.5 83 3.3 37.9
15:40 1024 30.24 853 25.19 5.9 42.6 81 2.9 37.3
15:45 1024 30.24 853 25.19 5.6 42.1 81 2.6 36.8
15:50 1024 30.24 853 25.19 5.4 41.8 82 2.7 36.8
15:55 1024 30.24 853 25.19 5.3 41.6 82 2.6 36.6
16:00 1024 30.24 853 25.19 5.5 41.9 83 2.8 37
16:05 1024 30.24 853 25.19 5.8 42.4 78 2.3 36.2
16:10 1024 30.24 853 25.19 5.8 42.5 79 2.4 36.4
16:15 1024 30.24 853 25.19 5.7 42.3 76 1.9 35.5
16:20 1024 30.24 853 25.19 5.8 42.4 74 1.6 34.8
16:25 1024 30.24 853 25.19 5.8 42.4 76 1.9 35.5
16:30 1024 30.24 853 25.19 5.9 42.7 75 1.8 35.3
16:35 1024 30.24 853 25.19 5.9 42.7 73 1.5 34.7
16:40 1024 30.24 853 25.19 5.9 42.7 73 1.4 34.6
16:45 1024 30.24 853 25.19 6 42.9 73 1.5 34.7
16:50 1024 30.24 853 25.19 6 42.8 72 1.4 34.5
16:55 1024 30.24 854 25.22 5.8 42.5 74 1.6 34.9
17:00 1024 30.24 854 25.22 5.8 42.4 73 1.3 34.4
17:05 1024 30.24 854 25.22 5.6 42.1 74 1.4 34.5
17:10 1024 30.24 854 25.22 5.5 41.8 75 1.4 34.4
17:15 1024 30.24 854 25.22 5.3 41.6 75 1.2 34.2
17:20 1024 30.24 854 25.22 5.2 41.3 75 1.2 34.1
17:25 1024 30.24 854 25.22 5.1 41.2 76 1.2 34.2
17:30 1024 30.24 854 25.22 5.1 41.1 77 1.3 34.3
17:35 1024 30.24 854 25.22 5 41 77 1.4 34.4
17:40 1024 30.24 854 25.22 5 41.1 76 1.1 34.1
17:45 1024 30.24 854 25.22 5.1 41.1 76 1.3 34.3
17:50 1024 30.24 854 25.22 5 41.1 76 1.2 34.2
17:55 1024 30.24 854 25.22 5 41 75 1 33.8
18:00 1025 30.27 854 25.22 5 41.1 76 1.2 34.1
18:05 1025 30.27 854 25.22 5 41.1 75 1 33.8
18:10 1025 30.27 854 25.22 5 41 75 0.8 33.5
18:15 1025 30.27 854 25.22 4.9 40.9 75 0.9 33.6
18:20 1025 30.27 854 25.22 4.9 40.8 75 0.8 33.4
18:25 1024 30.24 854 25.22 4.9 40.8 75 0.8 33.4
18:30 1024 30.24 854 25.22 4.8 40.7 75 0.7 33.3
18:35 1025 30.27 854 25.22 4.8 40.7 74 0.6 33.2
18:40 1025 30.27 854 25.22 4.8 40.6 74 0.5 32.8
18:45 1025 30.27 854 25.22 4.8 40.6 74 0.5 32.9
18:50 1025 30.27 854 25.22 4.8 40.6 74 0.5 32.9
18:55 1025 30.27 854 25.22 4.7 40.5 74 0.6 33
19:00 1025 30.27 854 25.22 4.7 40.4 74 0.5 32.8
19:05 1025 30.27 854 25.22 4.6 40.4 75 0.5 32.9
19:10 1025 30.27 854 25.22 4.6 40.3 74 0.4 32.6
19:15 1025 30.27 854 25.22 4.5 40.1 74 0.4 32.6
19:20 1025 30.27 854 25.22 4.4 40 75 0.5 32.8
19:25 1025 30.27 854 25.22 4.4 39.9 75 0.4 32.7
19:30 1025 30.27 854 25.22 4.3 39.7 75 0.3 32.5
19:35 1025 30.27 854 25.22 4.2 39.5 76 0.3 32.5
19:40 1025 30.27 854 25.22 4.1 39.4 76 0.2 32.4
19:45 1025 30.27 854 25.22 4.1 39.4 75 0.1 32.3
19:50 1025 30.27 854 25.22 4.1 39.3 76 0.2 32.4
19:55 1025 30.27 854 25.22 4 39.3 75 -0 32
20:00 1025 30.27 854 25.22 4.1 39.4 75 0 32
20:05 1025 30.27 854 25.22 4.1 39.4 74 -0.1 31.9
20:10 1025 30.27 854 25.22 4.1 39.4 73 -0.3 31.5
20:15 1025 30.27 854 25.22 4.1 39.4 74 -0.2 31.7
20:20 1025 30.27 855 25.25 4.1 39.3 74 -0.2 31.7
20:25 1025 30.27 855 25.25 4.1 39.3 75 -0 31.9
20:30 1025 30.27 855 25.25 4 39.3 75 0 32.1
20:35 1026 30.3 855 25.25 4 39.2 75 -0.1 31.8
20:40 1026 30.3 855 25.25 4 39.2 74 -0.2 31.7
20:45 1026 30.3 855 25.25 4 39.2 75 -0 31.9
20:50 1026 30.3 855 25.25 3.9 39.1 75 -0 32
20:55 1026 30.3 855 25.25 4 39.1 75 -0 31.9
21:00 1026 30.3 855 25.25 3.9 39 76 -0 32
21:05 1026 30.3 855 25.25 3.8 38.9 77 0.1 32.2
21:10 1026 30.3 855 25.25 3.8 38.8 77 0.1 32.1
21:15 1026 30.3 855 25.25 3.7 38.7 78 0.3 32.5
21:20 1026 30.3 855 25.25 3.7 38.6 78 0.2 32.3
21:25 1026 30.3 855 25.25 3.7 38.6 77 -0 32
21:30 1026 30.3 855 25.25 3.6 38.5 76 -0.1 31.8
21:35 1026 30.3 855 25.25 3.6 38.5 76 -0.2 31.7
21:40 1026 30.3 855 25.25 3.6 38.4 76 -0.3 31.5
21:45 1026 30.3 855 25.25 3.5 38.4 76 -0.3 31.5
21:50 1026 30.3 855 25.25 3.4 38.1 77 -0.2 31.6
21:55 1026 30.3 855 25.25 3.3 37.9 78 -0.1 31.8
22:00 1026 30.3 855 25.25 3.2 37.8 78 -0.3 31.5
22:05 1026 30.3 855 25.25 3.2 37.8 78 -0.2 31.6
22:10 1026 30.3 855 25.25 3.1 37.7 79 -0.2 31.6
22:15 1026 30.3 855 25.25 3.1 37.5 78 -0.3 31.4
22:20 1026 30.3 855 25.25 3 37.4 79 -0.3 31.4
22:25 1026 30.3 855 25.25 3 37.4 79 -0.4 31.3
22:30 1026 30.3 855 25.25 3 37.3 79 -0.4 31.4
22:35 1026 30.3 855 25.25 2.9 37.3 79 -0.3 31.4
22:40 1026 30.3 855 25.25 2.9 37.3 79 -0.3 31.5
22:45 1026 30.3 855 25.25 2.8 37.1 80 -0.3 31.5
22:50 1026 30.3 855 25.25 2.8 37.1 80 -0.3 31.5
22:55 1026 30.3 855 25.25 2.8 37 81 -0.2 31.6
23:00 1026 30.3 855 25.25 2.8 37 82 -0.1 31.9
23:05 1026 30.3 855 25.25 2.7 36.9 82 -0 31.9
23:10 1026 30.3 855 25.25 2.7 36.9 83 0.1 32.1
23:15 1026 30.3 855 25.25 2.7 36.8 83 0.1 32.2
23:20 1026 30.3 855 25.25 2.7 36.8 83 0.2 32.3
23:25 1026 30.3 855 25.25 2.7 36.8 84 0.2 32.4
23:30 1026 30.3 855 25.25 2.6 36.7 85 0.2 32.4
23:35 1026 30.3 855 25.25 2.6 36.6 85 0.3 32.5
23:40 1026 30.3 855 25.25 2.5 36.5 85 0.2 32.4
23:45 1026 30.3 855 25.25 2.6 36.6 85 0.3 32.5
23:50 1026 30.3 855 25.25 2.6 36.6 85 0.3 32.5
23:55 1026 30.3 855 25.25 2.6 36.7 84 0.2 32.4
24:00 1026 30.3 855 25.25 2.6 36.7 83 0.1 32.2